Bda Clausells, Puerto Rico
Current Conditions -  °F | °C
As of 10:50 AM on Thursday 18 Dec 2014 (Local Time) from TJBQ Reporting Station
Broken Clouds Broken Clouds  
Wind Chill: 79°   Ceiling: 8000
Heat Index: 81°   Visibility: 10mi
Dew Point: 66°   Wind: 17mph
Humidity: 65%   Direction: 70°ENE
Pressure: 30.08"   Gusts: 25mph
Location:  18.0152°N, 66.6246°W
Report Text: TJBQ 181450Z 07015G22KT 10SM SCT034 SCT050 BKN080 26/19 A3008 RMK RWY08 ATIS U
Loading
Personal Weather Stations






























Interactive Weather Map New forecast layout! Learn more

10-Day Weather Forecast

Advertisements
Track Severe Weather on mobile